sensor_id;sensor_type;location;lat;lon;timestamp;P1;durP1;ratioP1;P2;durP2;ratioP2
16385;SDS011;8302;51.154;4.456;2023-09-19T00:01:40;0.80;;;0.55;;
16385;SDS011;8302;51.154;4.456;2023-09-19T00:04:12;1.80;;;0.75;;
16385;SDS011;8302;51.154;4.456;2023-09-19T00:06:41;1.00;;;0.57;;
16385;SDS011;8302;51.154;4.456;2023-09-19T00:09:10;1.45;;;0.88;;
16385;SDS011;8302;51.154;4.456;2023-09-19T00:11:38;1.85;;;0.57;;
16385;SDS011;8302;51.154;4.456;2023-09-19T00:14:06;1.33;;;0.68;;
16385;SDS011;8302;51.154;4.456;2023-09-19T00:16:35;0.50;;;0.50;;
16385;SDS011;8302;51.154;4.456;2023-09-19T00:19:03;2.15;;;0.60;;
16385;SDS011;8302;51.154;4.456;2023-09-19T00:21:36;0.65;;;0.65;;
16385;SDS011;8302;51.154;4.456;2023-09-19T00:24:05;2.17;;;0.90;;
16385;SDS011;8302;51.154;4.456;2023-09-19T00:26:33;1.90;;;0.70;;
16385;SDS011;8302;51.154;4.456;2023-09-19T00:29:01;0.80;;;0.63;;
16385;SDS011;8302;51.154;4.456;2023-09-19T00:31:34;2.38;;;1.10;;
16385;SDS011;8302;51.154;4.456;2023-09-19T00:34:04;1.23;;;0.70;;
16385;SDS011;8302;51.154;4.456;2023-09-19T00:36:32;0.60;;;0.60;;
16385;SDS011;8302;51.154;4.456;2023-09-19T00:39:02;0.60;;;0.40;;
16385;SDS011;8302;51.154;4.456;2023-09-19T00:41:31;0.98;;;0.65;;
16385;SDS011;8302;51.154;4.456;2023-09-19T00:44:02;2.65;;;0.90;;
16385;SDS011;8302;51.154;4.456;2023-09-19T00:46:30;4.22;;;0.90;;
16385;SDS011;8302;51.154;4.456;2023-09-19T00:48:59;0.65;;;0.45;;
16385;SDS011;8302;51.154;4.456;2023-09-19T00:51:28;0.35;;;0.35;;
16385;SDS011;8302;51.154;4.456;2023-09-19T00:53:56;0.60;;;0.40;;
16385;SDS011;8302;51.154;4.456;2023-09-19T00:56:27;1.52;;;0.55;;
16385;SDS011;8302;51.154;4.456;2023-09-19T00:58:54;0.38;;;0.35;;
16385;SDS011;8302;51.154;4.456;2023-09-19T01:01:22;0.85;;;0.60;;
16385;SDS011;8302;51.154;4.456;2023-09-19T01:03:51;0.70;;;0.60;;
16385;SDS011;8302;51.154;4.456;2023-09-19T01:06:20;0.82;;;0.50;;
16385;SDS011;8302;51.154;4.456;2023-09-19T01:08:48;1.23;;;0.68;;
16385;SDS011;8302;51.154;4.456;2023-09-19T01:11:17;1.85;;;0.73;;
16385;SDS011;8302;51.154;4.456;2023-09-19T01:13:50;2.47;;;0.88;;
16385;SDS011;8302;51.154;4.456;2023-09-19T01:16:25;0.60;;;0.60;;
16385;SDS011;8302;51.154;4.456;2023-09-19T01:18:58;0.82;;;0.40;;
16385;SDS011;8302;51.154;4.456;2023-09-19T01:21:29;1.00;;;0.90;;
16385;SDS011;8302;51.154;4.456;2023-09-19T01:27:14;0.63;;;0.47;;
16385;SDS011;8302;51.154;4.456;2023-09-19T01:29:47;3.25;;;0.75;;
16385;SDS011;8302;51.154;4.456;2023-09-19T01:32:17;1.20;;;0.93;;
16385;SDS011;8302;51.154;4.456;2023-09-19T01:34:49;0.65;;;0.50;;
16385;SDS011;8302;51.154;4.456;2023-09-19T01:37:17;0.55;;;0.40;;
16385;SDS011;8302;51.154;4.456;2023-09-19T01:39:47;2.40;;;0.68;;
16385;SDS011;8302;51.154;4.456;2023-09-19T01:42:19;0.30;;;0.30;;
16385;SDS011;8302;51.154;4.456;2023-09-19T01:44:51;1.10;;;0.80;;
16385;SDS011;8302;51.154;4.456;2023-09-19T01:47:25;1.13;;;0.65;;
16385;SDS011;8302;51.154;4.456;2023-09-19T01:49:55;0.68;;;0.60;;
16385;SDS011;8302;51.154;4.456;2023-09-19T01:52:23;0.45;;;0.45;;
16385;SDS011;8302;51.154;4.456;2023-09-19T01:54:56;0.55;;;0.43;;
16385;SDS011;8302;51.154;4.456;2023-09-19T01:57:27;0.90;;;0.80;;
16385;SDS011;8302;51.154;4.456;2023-09-19T01:59:58;0.30;;;0.30;;
16385;SDS011;8302;51.154;4.456;2023-09-19T02:02:28;0.40;;;0.30;;
16385;SDS011;8302;51.154;4.456;2023-09-19T02:04:57;1.95;;;0.40;;
16385;SDS011;8302;51.154;4.456;2023-09-19T02:07:27;1.25;;;0.43;;
16385;SDS011;8302;51.154;4.456;2023-09-19T02:09:55;0.70;;;0.70;;
16385;SDS011;8302;51.154;4.456;2023-09-19T02:12:23;0.82;;;0.55;;
16385;SDS011;8302;51.154;4.456;2023-09-19T02:14:51;0.80;;;0.50;;
16385;SDS011;8302;51.154;4.456;2023-09-19T02:17:18;0.52;;;0.50;;
16385;SDS011;8302;51.154;4.456;2023-09-19T02:19:47;1.95;;;0.80;;
16385;SDS011;8302;51.154;4.456;2023-09-19T02:22:15;1.88;;;0.63;;
16385;SDS011;8302;51.154;4.456;2023-09-19T02:24:43;0.63;;;0.57;;
16385;SDS011;8302;51.154;4.456;2023-09-19T02:27:13;1.80;;;0.60;;
16385;SDS011;8302;51.154;4.456;2023-09-19T02:29:42;0.75;;;0.73;;
16385;SDS011;8302;51.154;4.456;2023-09-19T02:32:10;0.22;;;0.22;;
16385;SDS011;8302;51.154;4.456;2023-09-19T02:34:37;1.83;;;0.50;;
16385;SDS011;8302;51.154;4.456;2023-09-19T02:37:07;3.08;;;0.70;;
16385;SDS011;8302;51.154;4.456;2023-09-19T02:39:35;0.43;;;0.40;;
16385;SDS011;8302;51.154;4.456;2023-09-19T02:42:04;0.80;;;0.45;;
16385;SDS011;8302;51.154;4.456;2023-09-19T02:44:32;2.55;;;1.17;;
16385;SDS011;8302;51.154;4.456;2023-09-19T02:47:00;0.57;;;0.43;;
16385;SDS011;8302;51.154;4.456;2023-09-19T02:49:28;1.60;;;1.10;;
16385;SDS011;8302;51.154;4.456;2023-09-19T02:51:56;1.83;;;0.68;;
16385;SDS011;8302;51.154;4.456;2023-09-19T02:54:26;0.82;;;0.60;;
16385;SDS011;8302;51.154;4.456;2023-09-19T02:56:54;1.50;;;0.70;;
16385;SDS011;8302;51.154;4.456;2023-09-19T02:59:22;1.55;;;0.73;;
16385;SDS011;8302;51.154;4.456;2023-09-19T03:01:51;1.15;;;0.57;;
16385;SDS011;8302;51.154;4.456;2023-09-19T03:04:21;1.13;;;0.90;;
16385;SDS011;8302;51.154;4.456;2023-09-19T03:06:49;1.38;;;0.55;;
16385;SDS011;8302;51.154;4.456;2023-09-19T03:09:18;5.82;;;0.93;;
16385;SDS011;8302;51.154;4.456;2023-09-19T03:11:47;1.27;;;0.85;;
16385;SDS011;8302;51.154;4.456;2023-09-19T03:14:16;2.17;;;0.70;;
16385;SDS011;8302;51.154;4.456;2023-09-19T03:16:47;0.30;;;0.30;;
16385;SDS011;8302;51.154;4.456;2023-09-19T03:19:15;0.30;;;0.30;;
16385;SDS011;8302;51.154;4.456;2023-09-19T03:21:44;0.77;;;0.50;;
16385;SDS011;8302;51.154;4.456;2023-09-19T03:24:13;0.60;;;0.30;;
16385;SDS011;8302;51.154;4.456;2023-09-19T03:26:40;3.10;;;0.60;;
16385;SDS011;8302;51.154;4.456;2023-09-19T03:29:10;1.25;;;0.60;;
16385;SDS011;8302;51.154;4.456;2023-09-19T03:31:38;2.95;;;0.80;;
16385;SDS011;8302;51.154;4.456;2023-09-19T03:34:07;0.55;;;0.43;;
16385;SDS011;8302;51.154;4.456;2023-09-19T03:36:35;2.35;;;0.50;;
16385;SDS011;8302;51.154;4.456;2023-09-19T03:39:03;0.50;;;0.50;;
16385;SDS011;8302;51.154;4.456;2023-09-19T03:41:32;1.20;;;0.60;;
16385;SDS011;8302;51.154;4.456;2023-09-19T03:44:03;2.55;;;0.50;;
16385;SDS011;8302;51.154;4.456;2023-09-19T03:46:33;1.38;;;0.60;;
16385;SDS011;8302;51.154;4.456;2023-09-19T03:49:02;0.82;;;0.65;;
16385;SDS011;8302;51.154;4.456;2023-09-19T03:51:30;0.90;;;0.52;;
16385;SDS011;8302;51.154;4.456;2023-09-19T03:53:58;1.35;;;0.77;;
16385;SDS011;8302;51.154;4.456;2023-09-19T03:56:26;1.55;;;0.77;;
16385;SDS011;8302;51.154;4.456;2023-09-19T03:58:55;0.55;;;0.50;;
16385;SDS011;8302;51.154;4.456;2023-09-19T04:01:23;1.92;;;0.45;;
16385;SDS011;8302;51.154;4.456;2023-09-19T04:03:53;0.55;;;0.50;;
16385;SDS011;8302;51.154;4.456;2023-09-19T04:06:21;1.65;;;0.73;;
16385;SDS011;8302;51.154;4.456;2023-09-19T04:08:49;1.08;;;0.50;;
16385;SDS011;8302;51.154;4.456;2023-09-19T04:11:16;1.15;;;0.82;;
16385;SDS011;8302;51.154;4.456;2023-09-19T04:13:45;1.15;;;0.60;;
16385;SDS011;8302;51.154;4.456;2023-09-19T04:16:13;0.50;;;0.50;;
16385;SDS011;8302;51.154;4.456;2023-09-19T04:18:41;1.70;;;0.60;;
16385;SDS011;8302;51.154;4.456;2023-09-19T04:21:10;2.00;;;0.80;;
16385;SDS011;8302;51.154;4.456;2023-09-19T04:23:38;0.50;;;0.50;;
16385;SDS011;8302;51.154;4.456;2023-09-19T04:26:06;3.05;;;0.70;;
16385;SDS011;8302;51.154;4.456;2023-09-19T04:28:34;2.88;;;0.60;;
16385;SDS011;8302;51.154;4.456;2023-09-19T04:31:05;0.65;;;0.65;;
16385;SDS011;8302;51.154;4.456;2023-09-19T04:33:34;1.35;;;0.60;;
16385;SDS011;8302;51.154;4.456;2023-09-19T04:36:02;0.57;;;0.57;;
16385;SDS011;8302;51.154;4.456;2023-09-19T04:38:53;0.63;;;0.52;;
16385;SDS011;8302;51.154;4.456;2023-09-19T04:41:20;0.75;;;0.50;;
16385;SDS011;8302;51.154;4.456;2023-09-19T04:43:49;1.38;;;0.77;;
16385;SDS011;8302;51.154;4.456;2023-09-19T04:46:18;0.80;;;0.45;;
16385;SDS011;8302;51.154;4.456;2023-09-19T04:48:46;0.85;;;0.63;;
16385;SDS011;8302;51.154;4.456;2023-09-19T04:51:13;0.40;;;0.40;;
16385;SDS011;8302;51.154;4.456;2023-09-19T04:53:41;1.27;;;0.40;;
16385;SDS011;8302;51.154;4.456;2023-09-19T04:56:11;1.15;;;0.70;;
16385;SDS011;8302;51.154;4.456;2023-09-19T04:58:39;5.65;;;0.90;;
16385;SDS011;8302;51.154;4.456;2023-09-19T05:01:07;2.63;;;0.82;;
16385;SDS011;8302;51.154;4.456;2023-09-19T05:03:38;2.97;;;0.75;;
16385;SDS011;8302;51.154;4.456;2023-09-19T05:06:06;1.85;;;0.88;;
16385;SDS011;8302;51.154;4.456;2023-09-19T05:08:33;1.33;;;0.70;;
16385;SDS011;8302;51.154;4.456;2023-09-19T05:11:02;3.80;;;1.05;;
16385;SDS011;8302;51.154;4.456;2023-09-19T05:13:31;0.88;;;0.63;;
16385;SDS011;8302;51.154;4.456;2023-09-19T05:15:59;1.10;;;0.70;;
16385;SDS011;8302;51.154;4.456;2023-09-19T05:18:28;3.70;;;0.73;;
16385;SDS011;8302;51.154;4.456;2023-09-19T05:20:55;3.03;;;0.80;;
16385;SDS011;8302;51.154;4.456;2023-09-19T05:23:23;1.48;;;0.93;;
16385;SDS011;8302;51.154;4.456;2023-09-19T05:25:51;0.60;;;0.60;;
16385;SDS011;8302;51.154;4.456;2023-09-19T05:28:19;5.10;;;1.55;;
16385;SDS011;8302;51.154;4.456;2023-09-19T05:30:48;10.13;;;3.05;;
16385;SDS011;8302;51.154;4.456;2023-09-19T05:33:16;11.60;;;2.33;;
16385;SDS011;8302;51.154;4.456;2023-09-19T05:35:45;12.00;;;4.35;;
16385;SDS011;8302;51.154;4.456;2023-09-19T05:38:13;17.10;;;3.70;;
16385;SDS011;8302;51.154;4.456;2023-09-19T05:40:45;8.43;;;2.70;;
16385;SDS011;8302;51.154;4.456;2023-09-19T05:43:13;12.77;;;3.53;;
16385;SDS011;8302;51.154;4.456;2023-09-19T05:45:41;19.58;;;4.78;;
16385;SDS011;8302;51.154;4.456;2023-09-19T05:48:11;26.30;;;6.07;;
16385;SDS011;8302;51.154;4.456;2023-09-19T05:50:40;13.48;;;4.90;;
16385;SDS011;8302;51.154;4.456;2023-09-19T05:53:08;15.88;;;5.00;;
16385;SDS011;8302;51.154;4.456;2023-09-19T05:55:41;16.98;;;4.68;;
16385;SDS011;8302;51.154;4.456;2023-09-19T05:58:09;20.60;;;6.40;;
16385;SDS011;8302;51.154;4.456;2023-09-19T06:00:40;26.77;;;6.25;;
16385;SDS011;8302;51.154;4.456;2023-09-19T06:03:12;24.08;;;6.88;;
16385;SDS011;8302;51.154;4.456;2023-09-19T06:05:41;23.45;;;7.55;;
16385;SDS011;8302;51.154;4.456;2023-09-19T06:08:08;9.38;;;4.47;;
16385;SDS011;8302;51.154;4.456;2023-09-19T06:10:36;17.33;;;6.03;;
16385;SDS011;8302;51.154;4.456;2023-09-19T06:13:04;21.35;;;6.53;;
16385;SDS011;8302;51.154;4.456;2023-09-19T06:15:32;8.98;;;4.10;;
16385;SDS011;8302;51.154;4.456;2023-09-19T06:18:02;16.60;;;3.35;;
16385;SDS011;8302;51.154;4.456;2023-09-19T06:20:33;23.35;;;5.07;;
16385;SDS011;8302;51.154;4.456;2023-09-19T06:23:01;19.75;;;5.90;;
16385;SDS011;8302;51.154;4.456;2023-09-19T06:25:30;14.27;;;5.22;;
16385;SDS011;8302;51.154;4.456;2023-09-19T06:27:58;14.02;;;3.85;;
16385;SDS011;8302;51.154;4.456;2023-09-19T06:30:25;11.60;;;4.55;;
16385;SDS011;8302;51.154;4.456;2023-09-19T06:32:56;12.63;;;4.25;;
16385;SDS011;8302;51.154;4.456;2023-09-19T06:35:24;11.55;;;4.05;;
16385;SDS011;8302;51.154;4.456;2023-09-19T06:37:54;17.65;;;5.57;;
16385;SDS011;8302;51.154;4.456;2023-09-19T06:40:24;7.38;;;2.97;;
16385;SDS011;8302;51.154;4.456;2023-09-19T06:42:54;12.80;;;3.47;;
16385;SDS011;8302;51.154;4.456;2023-09-19T06:45:23;9.70;;;2.58;;
16385;SDS011;8302;51.154;4.456;2023-09-19T06:47:54;8.32;;;3.38;;
16385;SDS011;8302;51.154;4.456;2023-09-19T06:50:25;7.53;;;2.28;;
16385;SDS011;8302;51.154;4.456;2023-09-19T06:52:55;5.50;;;2.50;;
16385;SDS011;8302;51.154;4.456;2023-09-19T06:55:25;7.50;;;2.60;;
16385;SDS011;8302;51.154;4.456;2023-09-19T06:57:55;8.48;;;3.58;;
16385;SDS011;8302;51.154;4.456;2023-09-19T07:00:23;4.50;;;1.90;;
16385;SDS011;8302;51.154;4.456;2023-09-19T07:02:55;8.18;;;2.47;;
16385;SDS011;8302;51.154;4.456;2023-09-19T07:05:24;12.27;;;2.92;;
16385;SDS011;8302;51.154;4.456;2023-09-19T07:07:52;4.38;;;2.30;;
16385;SDS011;8302;51.154;4.456;2023-09-19T07:10:22;6.55;;;2.25;;
16385;SDS011;8302;51.154;4.456;2023-09-19T07:12:55;8.88;;;2.65;;
16385;SDS011;8302;51.154;4.456;2023-09-19T07:15:24;4.53;;;2.15;;
16385;SDS011;8302;51.154;4.456;2023-09-19T07:17:52;10.00;;;2.58;;
16385;SDS011;8302;51.154;4.456;2023-09-19T07:20:20;10.82;;;2.28;;
16385;SDS011;8302;51.154;4.456;2023-09-19T07:22:48;5.82;;;2.47;;
16385;SDS011;8302;51.154;4.456;2023-09-19T07:25:17;9.93;;;2.53;;
16385;SDS011;8302;51.154;4.456;2023-09-19T07:27:46;3.72;;;1.90;;
16385;SDS011;8302;51.154;4.456;2023-09-19T07:30:14;4.40;;;2.08;;
16385;SDS011;8302;51.154;4.456;2023-09-19T07:32:43;3.55;;;1.40;;
16385;SDS011;8302;51.154;4.456;2023-09-19T07:35:11;5.43;;;1.52;;
16385;SDS011;8302;51.154;4.456;2023-09-19T07:37:39;3.45;;;1.45;;
16385;SDS011;8302;51.154;4.456;2023-09-19T07:40:07;2.65;;;1.80;;
16385;SDS011;8302;51.154;4.456;2023-09-19T07:42:36;4.70;;;1.92;;
16385;SDS011;8302;51.154;4.456;2023-09-19T07:45:07;6.93;;;2.08;;
16385;SDS011;8302;51.154;4.456;2023-09-19T07:47:35;1.73;;;1.25;;
16385;SDS011;8302;51.154;4.456;2023-09-19T07:50:04;5.93;;;2.15;;
16385;SDS011;8302;51.154;4.456;2023-09-19T07:52:34;6.35;;;1.80;;
16385;SDS011;8302;51.154;4.456;2023-09-19T07:55:01;4.95;;;1.45;;
16385;SDS011;8302;51.154;4.456;2023-09-19T07:57:35;3.78;;;1.25;;
16385;SDS011;8302;51.154;4.456;2023-09-19T08:00:04;3.47;;;1.10;;
16385;SDS011;8302;51.154;4.456;2023-09-19T08:02:43;5.05;;;1.20;;
16385;SDS011;8302;51.154;4.456;2023-09-19T08:05:16;4.10;;;1.42;;
16385;SDS011;8302;51.154;4.456;2023-09-19T08:07:45;3.33;;;1.10;;
16385;SDS011;8302;51.154;4.456;2023-09-19T08:10:15;4.03;;;1.63;;
16385;SDS011;8302;51.154;4.456;2023-09-19T08:12:46;3.95;;;1.45;;
16385;SDS011;8302;51.154;4.456;2023-09-19T08:15:15;4.38;;;1.20;;
16385;SDS011;8302;51.154;4.456;2023-09-19T08:17:45;3.88;;;1.10;;
16385;SDS011;8302;51.154;4.456;2023-09-19T08:20:13;3.75;;;1.30;;
16385;SDS011;8302;51.154;4.456;2023-09-19T08:22:43;4.22;;;1.27;;
16385;SDS011;8302;51.154;4.456;2023-09-19T08:25:12;5.07;;;1.60;;
16385;SDS011;8302;51.154;4.456;2023-09-19T08:27:40;2.53;;;1.38;;
16385;SDS011;8302;51.154;4.456;2023-09-19T08:30:10;5.13;;;1.33;;
16385;SDS011;8302;51.154;4.456;2023-09-19T08:32:38;2.15;;;1.35;;
16385;SDS011;8302;51.154;4.456;2023-09-19T08:35:10;2.70;;;1.02;;
16385;SDS011;8302;51.154;4.456;2023-09-19T08:37:38;4.53;;;1.80;;
16385;SDS011;8302;51.154;4.456;2023-09-19T08:40:06;3.83;;;1.67;;
16385;SDS011;8302;51.154;4.456;2023-09-19T08:42:48;2.63;;;1.27;;
16385;SDS011;8302;51.154;4.456;2023-09-19T08:45:17;1.77;;;1.10;;
16385;SDS011;8302;51.154;4.456;2023-09-19T08:47:45;2.40;;;1.20;;
16385;SDS011;8302;51.154;4.456;2023-09-19T08:50:17;5.65;;;1.50;;
16385;SDS011;8302;51.154;4.456;2023-09-19T08:52:46;2.60;;;0.98;;
16385;SDS011;8302;51.154;4.456;2023-09-19T08:55:17;1.23;;;0.93;;
16385;SDS011;8302;51.154;4.456;2023-09-19T08:57:49;2.25;;;1.10;;
16385;SDS011;8302;51.154;4.456;2023-09-19T09:00:17;2.10;;;1.20;;
16385;SDS011;8302;51.154;4.456;2023-09-19T09:02:47;7.53;;;1.20;;
16385;SDS011;8302;51.154;4.456;2023-09-19T09:05:17;3.13;;;1.30;;
16385;SDS011;8302;51.154;4.456;2023-09-19T09:07:49;2.45;;;1.25;;
16385;SDS011;8302;51.154;4.456;2023-09-19T09:10:18;1.08;;;0.57;;
16385;SDS011;8302;51.154;4.456;2023-09-19T09:12:49;3.28;;;1.27;;
16385;SDS011;8302;51.154;4.456;2023-09-19T09:15:18;2.85;;;0.90;;
16385;SDS011;8302;51.154;4.456;2023-09-19T09:17:48;2.53;;;1.13;;
16385;SDS011;8302;51.154;4.456;2023-09-19T09:20:18;3.42;;;0.85;;
16385;SDS011;8302;51.154;4.456;2023-09-19T09:22:52;4.72;;;1.20;;
16385;SDS011;8302;51.154;4.456;2023-09-19T09:25:21;3.53;;;1.35;;
16385;SDS011;8302;51.154;4.456;2023-09-19T09:28:00;1.38;;;0.68;;
16385;SDS011;8302;51.154;4.456;2023-09-19T09:30:35;2.65;;;1.33;;
16385;SDS011;8302;51.154;4.456;2023-09-19T09:33:10;3.65;;;0.95;;
16385;SDS011;8302;51.154;4.456;2023-09-19T09:35:48;1.63;;;0.98;;
16385;SDS011;8302;51.154;4.456;2023-09-19T09:38:19;4.03;;;0.77;;
16385;SDS011;8302;51.154;4.456;2023-09-19T09:40:47;1.33;;;0.73;;
16385;SDS011;8302;51.154;4.456;2023-09-19T09:43:29;2.33;;;0.85;;
16385;SDS011;8302;51.154;4.456;2023-09-19T09:46:06;3.20;;;1.33;;
16385;SDS011;8302;51.154;4.456;2023-09-19T09:48:38;2.15;;;1.10;;
16385;SDS011;8302;51.154;4.456;2023-09-19T09:51:07;1.58;;;1.15;;
16385;SDS011;8302;51.154;4.456;2023-09-19T09:53:35;2.10;;;1.02;;
16385;SDS011;8302;51.154;4.456;2023-09-19T09:56:04;3.75;;;1.58;;
16385;SDS011;8302;51.154;4.456;2023-09-19T09:58:33;4.75;;;1.50;;
16385;SDS011;8302;51.154;4.456;2023-09-19T10:01:03;2.58;;;1.10;;
16385;SDS011;8302;51.154;4.456;2023-09-19T10:03:35;2.92;;;1.38;;
16385;SDS011;8302;51.154;4.456;2023-09-19T10:06:10;1.83;;;1.00;;
16385;SDS011;8302;51.154;4.456;2023-09-19T10:09:03;3.47;;;0.93;;
16385;SDS011;8302;51.154;4.456;2023-09-19T10:11:40;2.95;;;1.20;;
16385;SDS011;8302;51.154;4.456;2023-09-19T10:14:09;3.08;;;1.27;;
16385;SDS011;8302;51.154;4.456;2023-09-19T10:16:40;2.00;;;0.80;;
16385;SDS011;8302;51.154;4.456;2023-09-19T10:19:08;2.22;;;0.65;;
16385;SDS011;8302;51.154;4.456;2023-09-19T10:21:38;1.80;;;0.90;;
16385;SDS011;8302;51.154;4.456;2023-09-19T10:24:07;1.73;;;0.80;;
16385;SDS011;8302;51.154;4.456;2023-09-19T10:26:35;1.65;;;0.90;;
16385;SDS011;8302;51.154;4.456;2023-09-19T10:29:03;1.90;;;0.80;;
16385;SDS011;8302;51.154;4.456;2023-09-19T10:31:34;2.28;;;0.85;;
16385;SDS011;8302;51.154;4.456;2023-09-19T10:34:03;1.48;;;0.80;;
16385;SDS011;8302;51.154;4.456;2023-09-19T10:36:32;4.10;;;1.25;;
16385;SDS011;8302;51.154;4.456;2023-09-19T10:39:03;1.67;;;0.98;;
16385;SDS011;8302;51.154;4.456;2023-09-19T10:41:33;1.77;;;0.60;;
16385;SDS011;8302;51.154;4.456;2023-09-19T10:44:04;1.02;;;0.88;;
16385;SDS011;8302;51.154;4.456;2023-09-19T10:46:32;0.95;;;0.55;;
16385;SDS011;8302;51.154;4.456;2023-09-19T10:49:00;1.60;;;0.88;;
16385;SDS011;8302;51.154;4.456;2023-09-19T10:51:29;1.42;;;0.80;;
16385;SDS011;8302;51.154;4.456;2023-09-19T10:54:00;2.22;;;0.80;;
16385;SDS011;8302;51.154;4.456;2023-09-19T10:56:32;3.65;;;0.65;;
16385;SDS011;8302;51.154;4.456;2023-09-19T10:59:07;2.50;;;1.00;;
16385;SDS011;8302;51.154;4.456;2023-09-19T11:01:41;1.77;;;0.70;;
16385;SDS011;8302;51.154;4.456;2023-09-19T11:04:20;2.72;;;1.15;;
16385;SDS011;8302;51.154;4.456;2023-09-19T11:06:59;1.92;;;0.90;;
16385;SDS011;8302;51.154;4.456;2023-09-19T11:09:35;1.42;;;0.70;;
16385;SDS011;8302;51.154;4.456;2023-09-19T11:12:12;2.20;;;0.82;;
16385;SDS011;8302;51.154;4.456;2023-09-19T11:14:40;1.52;;;0.82;;
16385;SDS011;8302;51.154;4.456;2023-09-19T11:20:22;3.47;;;1.10;;
16385;SDS011;8302;51.154;4.456;2023-09-19T11:23:18;2.10;;;0.82;;
16385;SDS011;8302;51.154;4.456;2023-09-19T11:25:49;1.60;;;0.70;;
16385;SDS011;8302;51.154;4.456;2023-09-19T11:28:32;3.53;;;0.95;;
16385;SDS011;8302;51.154;4.456;2023-09-19T11:33:43;2.03;;;0.75;;
16385;SDS011;8302;51.154;4.456;2023-09-19T11:36:13;1.92;;;1.00;;
16385;SDS011;8302;51.154;4.456;2023-09-19T11:38:58;1.65;;;0.60;;
16385;SDS011;8302;51.154;4.456;2023-09-19T11:41:37;1.80;;;0.75;;
16385;SDS011;8302;51.154;4.456;2023-09-19T11:46:53;2.97;;;0.90;;
16385;SDS011;8302;51.154;4.456;2023-09-19T11:49:25;1.13;;;0.63;;
16385;SDS011;8302;51.154;4.456;2023-09-19T11:51:57;1.15;;;0.80;;
16385;SDS011;8302;51.154;4.456;2023-09-19T11:54:27;1.58;;;0.70;;
16385;SDS011;8302;51.154;4.456;2023-09-19T11:56:58;0.65;;;0.50;;
16385;SDS011;8302;51.154;4.456;2023-09-19T11:59:26;1.70;;;0.60;;
16385;SDS011;8302;51.154;4.456;2023-09-19T12:01:57;0.90;;;0.50;;
16385;SDS011;8302;51.154;4.456;2023-09-19T12:04:33;0.55;;;0.32;;
16385;SDS011;8302;51.154;4.456;2023-09-19T12:07:05;2.05;;;0.65;;
16385;SDS011;8302;51.154;4.456;2023-09-19T12:09:39;1.80;;;0.68;;
16385;SDS011;8302;51.154;4.456;2023-09-19T12:12:10;0.60;;;0.50;;
16385;SDS011;8302;51.154;4.456;2023-09-19T12:14:42;1.85;;;0.68;;
16385;SDS011;8302;51.154;4.456;2023-09-19T12:17:16;2.53;;;0.88;;
16385;SDS011;8302;51.154;4.456;2023-09-19T12:19:49;1.70;;;0.82;;
16385;SDS011;8302;51.154;4.456;2023-09-19T12:22:17;0.88;;;0.70;;
16385;SDS011;8302;51.154;4.456;2023-09-19T12:24:47;1.77;;;0.55;;
16385;SDS011;8302;51.154;4.456;2023-09-19T12:27:15;1.42;;;0.88;;
16385;SDS011;8302;51.154;4.456;2023-09-19T12:29:44;1.08;;;0.73;;
16385;SDS011;8302;51.154;4.456;2023-09-19T12:32:12;1.75;;;0.80;;
16385;SDS011;8302;51.154;4.456;2023-09-19T12:34:51;2.05;;;0.80;;
16385;SDS011;8302;51.154;4.456;2023-09-19T12:37:20;1.20;;;0.90;;
16385;SDS011;8302;51.154;4.456;2023-09-19T12:39:49;1.33;;;0.77;;
16385;SDS011;8302;51.154;4.456;2023-09-19T12:42:20;1.25;;;0.68;;
16385;SDS011;8302;51.154;4.456;2023-09-19T12:44:49;1.23;;;0.57;;
16385;SDS011;8302;51.154;4.456;2023-09-19T12:47:21;1.85;;;0.70;;
16385;SDS011;8302;51.154;4.456;2023-09-19T12:50:08;1.13;;;0.60;;
16385;SDS011;8302;51.154;4.456;2023-09-19T12:52:41;0.93;;;0.60;;
16385;SDS011;8302;51.154;4.456;2023-09-19T12:55:19;1.25;;;0.68;;
16385;SDS011;8302;51.154;4.456;2023-09-19T12:58:00;1.48;;;0.70;;
16385;SDS011;8302;51.154;4.456;2023-09-19T13:00:32;0.98;;;0.50;;
16385;SDS011;8302;51.154;4.456;2023-09-19T13:03:11;1.25;;;0.82;;
16385;SDS011;8302;51.154;4.456;2023-09-19T13:05:50;2.88;;;0.70;;
16385;SDS011;8302;51.154;4.456;2023-09-19T13:08:20;0.90;;;0.45;;
16385;SDS011;8302;51.154;4.456;2023-09-19T13:11:01;0.60;;;0.60;;
16385;SDS011;8302;51.154;4.456;2023-09-19T13:13:29;0.60;;;0.40;;
16385;SDS011;8302;51.154;4.456;2023-09-19T13:15:57;1.52;;;0.68;;
16385;SDS011;8302;51.154;4.456;2023-09-19T13:18:26;2.78;;;0.90;;
16385;SDS011;8302;51.154;4.456;2023-09-19T13:21:07;1.95;;;0.73;;
16385;SDS011;8302;51.154;4.456;2023-09-19T13:23:37;1.95;;;0.80;;
16385;SDS011;8302;51.154;4.456;2023-09-19T13:26:05;1.15;;;0.40;;
16385;SDS011;8302;51.154;4.456;2023-09-19T13:28:33;0.82;;;0.60;;
16385;SDS011;8302;51.154;4.456;2023-09-19T13:31:01;1.35;;;0.40;;
16385;SDS011;8302;51.154;4.456;2023-09-19T13:33:28;0.90;;;0.70;;
16385;SDS011;8302;51.154;4.456;2023-09-19T13:35:58;2.65;;;0.80;;
16385;SDS011;8302;51.154;4.456;2023-09-19T13:38:27;0.93;;;0.60;;
16385;SDS011;8302;51.154;4.456;2023-09-19T13:40:55;1.42;;;0.60;;
16385;SDS011;8302;51.154;4.456;2023-09-19T13:43:23;2.15;;;0.60;;
16385;SDS011;8302;51.154;4.456;2023-09-19T13:45:51;0.55;;;0.35;;
16385;SDS011;8302;51.154;4.456;2023-09-19T13:48:19;0.60;;;0.50;;
16385;SDS011;8302;51.154;4.456;2023-09-19T13:50:49;1.08;;;0.60;;
16385;SDS011;8302;51.154;4.456;2023-09-19T13:53:16;2.97;;;0.90;;
16385;SDS011;8302;51.154;4.456;2023-09-19T13:55:45;0.35;;;0.35;;
16385;SDS011;8302;51.154;4.456;2023-09-19T13:58:14;0.80;;;0.52;;
16385;SDS011;8302;51.154;4.456;2023-09-19T14:00:42;1.05;;;0.77;;
16385;SDS011;8302;51.154;4.456;2023-09-19T14:03:10;2.50;;;0.60;;
16385;SDS011;8302;51.154;4.456;2023-09-19T14:05:38;1.55;;;0.55;;
16385;SDS011;8302;51.154;4.456;2023-09-19T14:08:06;0.65;;;0.50;;
16385;SDS011;8302;51.154;4.456;2023-09-19T14:10:34;1.08;;;0.52;;
16385;SDS011;8302;51.154;4.456;2023-09-19T14:13:04;2.60;;;0.60;;
16385;SDS011;8302;51.154;4.456;2023-09-19T14:15:31;1.00;;;0.68;;
16385;SDS011;8302;51.154;4.456;2023-09-19T14:18:01;1.80;;;0.60;;
16385;SDS011;8302;51.154;4.456;2023-09-19T14:20:29;1.77;;;0.80;;
16385;SDS011;8302;51.154;4.456;2023-09-19T14:22:57;0.52;;;0.43;;
16385;SDS011;8302;51.154;4.456;2023-09-19T14:25:26;2.65;;;0.70;;
16385;SDS011;8302;51.154;4.456;2023-09-19T14:27:55;1.13;;;0.50;;
16385;SDS011;8302;51.154;4.456;2023-09-19T14:30:24;1.23;;;0.98;;
16385;SDS011;8302;51.154;4.456;2023-09-19T14:32:52;2.13;;;0.88;;
16385;SDS011;8302;51.154;4.456;2023-09-19T14:35:20;0.47;;;0.38;;
16385;SDS011;8302;51.154;4.456;2023-09-19T14:37:49;0.98;;;0.40;;
16385;SDS011;8302;51.154;4.456;2023-09-19T14:40:17;0.75;;;0.63;;
16385;SDS011;8302;51.154;4.456;2023-09-19T14:42:45;0.60;;;0.43;;
16385;SDS011;8302;51.154;4.456;2023-09-19T14:45:18;0.63;;;0.50;;
16385;SDS011;8302;51.154;4.456;2023-09-19T14:47:47;1.27;;;0.70;;
16385;SDS011;8302;51.154;4.456;2023-09-19T14:50:15;1.77;;;1.02;;
16385;SDS011;8302;51.154;4.456;2023-09-19T14:52:43;1.52;;;0.80;;
16385;SDS011;8302;51.154;4.456;2023-09-19T14:55:11;1.30;;;0.55;;
16385;SDS011;8302;51.154;4.456;2023-09-19T14:57:41;3.50;;;0.70;;
16385;SDS011;8302;51.154;4.456;2023-09-19T15:00:11;1.65;;;0.70;;
16385;SDS011;8302;51.154;4.456;2023-09-19T15:02:39;0.68;;;0.40;;
16385;SDS011;8302;51.154;4.456;2023-09-19T15:05:09;1.38;;;0.60;;
16385;SDS011;8302;51.154;4.456;2023-09-19T15:07:38;0.40;;;0.40;;
16385;SDS011;8302;51.154;4.456;2023-09-19T15:10:07;2.30;;;0.65;;
16385;SDS011;8302;51.154;4.456;2023-09-19T15:12:36;0.45;;;0.45;;
16385;SDS011;8302;51.154;4.456;2023-09-19T15:15:06;1.23;;;0.70;;
16385;SDS011;8302;51.154;4.456;2023-09-19T15:17:35;1.58;;;1.05;;
16385;SDS011;8302;51.154;4.456;2023-09-19T15:20:03;0.38;;;0.38;;
16385;SDS011;8302;51.154;4.456;2023-09-19T15:22:34;1.10;;;0.65;;
16385;SDS011;8302;51.154;4.456;2023-09-19T15:25:02;1.90;;;0.73;;
16385;SDS011;8302;51.154;4.456;2023-09-19T15:27:30;0.85;;;0.63;;
16385;SDS011;8302;51.154;4.456;2023-09-19T15:29:59;0.52;;;0.52;;